sensor_id;sensor_type;location;lat;lon;timestamp;temperature;humidity
44851;DHT22;30583;48.714;9.386;2023-03-18T00:01:53;11.20;67.50
44851;DHT22;30583;48.714;9.386;2023-03-18T00:04:19;10.90;68.40
44851;DHT22;30583;48.714;9.386;2023-03-18T00:06:45;10.70;69.30
44851;DHT22;30583;48.714;9.386;2023-03-18T00:09:11;10.60;69.40
44851;DHT22;30583;48.714;9.386;2023-03-18T00:11:38;10.50;69.60
44851;DHT22;30583;48.714;9.386;2023-03-18T00:14:05;10.60;69.30
44851;DHT22;30583;48.714;9.386;2023-03-18T00:16:31;10.80;68.40
44851;DHT22;30583;48.714;9.386;2023-03-18T00:18:56;10.80;68.20
44851;DHT22;30583;48.714;9.386;2023-03-18T00:21:22;10.80;68.20
44851;DHT22;30583;48.714;9.386;2023-03-18T00:23:48;10.80;68.30
44851;DHT22;30583;48.714;9.386;2023-03-18T00:26:15;10.70;68.80
44851;DHT22;30583;48.714;9.386;2023-03-18T00:28:41;10.70;68.60
44851;DHT22;30583;48.714;9.386;2023-03-18T00:31:10;10.60;68.60
44851;DHT22;30583;48.714;9.386;2023-03-18T00:33:39;10.60;68.80
44851;DHT22;30583;48.714;9.386;2023-03-18T00:36:06;10.70;68.30
44851;DHT22;30583;48.714;9.386;2023-03-18T00:38:34;10.70;68.20
44851;DHT22;30583;48.714;9.386;2023-03-18T00:41:00;10.70;67.50
44851;DHT22;30583;48.714;9.386;2023-03-18T00:43:35;10.30;68.50
44851;DHT22;30583;48.714;9.386;2023-03-18T00:46:14;10.50;67.70
44851;DHT22;30583;48.714;9.386;2023-03-18T00:48:41;10.60;67.70
44851;DHT22;30583;48.714;9.386;2023-03-18T00:51:07;10.50;67.80
44851;DHT22;30583;48.714;9.386;2023-03-18T00:53:33;10.40;67.90
44851;DHT22;30583;48.714;9.386;2023-03-18T00:55:58;10.70;67.20
44851;DHT22;30583;48.714;9.386;2023-03-18T00:58:24;10.50;68.20
44851;DHT22;30583;48.714;9.386;2023-03-18T01:00:50;10.50;68.50
44851;DHT22;30583;48.714;9.386;2023-03-18T01:03:15;10.60;68.70
44851;DHT22;30583;48.714;9.386;2023-03-18T01:05:42;10.40;69.00
44851;DHT22;30583;48.714;9.386;2023-03-18T01:08:08;10.40;68.80
44851;DHT22;30583;48.714;9.386;2023-03-18T01:10:34;10.40;68.70
44851;DHT22;30583;48.714;9.386;2023-03-18T01:12:59;10.20;68.80
44851;DHT22;30583;48.714;9.386;2023-03-18T01:15:25;10.30;68.90
44851;DHT22;30583;48.714;9.386;2023-03-18T01:17:51;10.40;68.80
44851;DHT22;30583;48.714;9.386;2023-03-18T01:20:21;10.40;68.30
44851;DHT22;30583;48.714;9.386;2023-03-18T01:22:47;10.40;68.00
44851;DHT22;30583;48.714;9.386;2023-03-18T01:25:15;10.40;67.80
44851;DHT22;30583;48.714;9.386;2023-03-18T01:27:41;10.20;68.20
44851;DHT22;30583;48.714;9.386;2023-03-18T01:30:08;10.40;67.70
44851;DHT22;30583;48.714;9.386;2023-03-18T01:32:35;10.30;67.80
44851;DHT22;30583;48.714;9.386;2023-03-18T01:35:01;10.20;68.10
44851;DHT22;30583;48.714;9.386;2023-03-18T01:37:26;10.10;68.60
44851;DHT22;30583;48.714;9.386;2023-03-18T01:39:53;9.90;69.50
44851;DHT22;30583;48.714;9.386;2023-03-18T01:42:19;10.00;70.00
44851;DHT22;30583;48.714;9.386;2023-03-18T01:44:46;9.90;70.10
44851;DHT22;30583;48.714;9.386;2023-03-18T01:47:13;10.10;70.20
44851;DHT22;30583;48.714;9.386;2023-03-18T01:49:47;9.90;70.50
44851;DHT22;30583;48.714;9.386;2023-03-18T01:52:31;10.00;70.40
44851;DHT22;30583;48.714;9.386;2023-03-18T01:55:03;9.90;69.90
44851;DHT22;30583;48.714;9.386;2023-03-18T01:57:30;9.60;70.40
44851;DHT22;30583;48.714;9.386;2023-03-18T01:59:57;9.90;69.80
44851;DHT22;30583;48.714;9.386;2023-03-18T02:02:24;10.10;68.80
44851;DHT22;30583;48.714;9.386;2023-03-18T02:04:52;10.10;68.50
44851;DHT22;30583;48.714;9.386;2023-03-18T02:07:24;10.20;68.50
44851;DHT22;30583;48.714;9.386;2023-03-18T02:09:50;9.90;69.50
44851;DHT22;30583;48.714;9.386;2023-03-18T02:12:22;10.10;69.60
44851;DHT22;30583;48.714;9.386;2023-03-18T02:14:50;9.90;70.00
44851;DHT22;30583;48.714;9.386;2023-03-18T02:17:20;10.00;69.60
44851;DHT22;30583;48.714;9.386;2023-03-18T02:27:27;9.70;71.00
44851;DHT22;30583;48.714;9.386;2023-03-18T02:29:57;9.50;72.40
44851;DHT22;30583;48.714;9.386;2023-03-18T02:32:27;9.70;71.60
44851;DHT22;30583;48.714;9.386;2023-03-18T02:34:53;9.90;71.10
44851;DHT22;30583;48.714;9.386;2023-03-18T02:37:19;10.10;70.40
44851;DHT22;30583;48.714;9.386;2023-03-18T02:39:45;9.90;70.20
44851;DHT22;30583;48.714;9.386;2023-03-18T02:42:11;9.60;71.50
44851;DHT22;30583;48.714;9.386;2023-03-18T02:44:42;9.40;71.70
44851;DHT22;30583;48.714;9.386;2023-03-18T02:47:12;9.50;71.70
44851;DHT22;30583;48.714;9.386;2023-03-18T02:49:40;9.80;70.70
44851;DHT22;30583;48.714;9.386;2023-03-18T02:52:05;10.10;69.40
44851;DHT22;30583;48.714;9.386;2023-03-18T02:54:31;9.90;69.70
44851;DHT22;30583;48.714;9.386;2023-03-18T02:56:57;9.70;70.40
44851;DHT22;30583;48.714;9.386;2023-03-18T02:59:23;9.80;70.20
44851;DHT22;30583;48.714;9.386;2023-03-18T03:01:51;9.60;70.30
44851;DHT22;30583;48.714;9.386;2023-03-18T03:04:19;9.50;71.00
44851;DHT22;30583;48.714;9.386;2023-03-18T03:06:45;9.60;70.50
44851;DHT22;30583;48.714;9.386;2023-03-18T03:09:13;9.70;70.30
44851;DHT22;30583;48.714;9.386;2023-03-18T03:11:40;9.80;69.80
44851;DHT22;30583;48.714;9.386;2023-03-18T03:14:07;9.70;69.70
44851;DHT22;30583;48.714;9.386;2023-03-18T03:16:33;9.60;70.20
44851;DHT22;30583;48.714;9.386;2023-03-18T03:18:59;9.60;70.40
44851;DHT22;30583;48.714;9.386;2023-03-18T03:21:25;9.60;70.50
44851;DHT22;30583;48.714;9.386;2023-03-18T03:23:50;9.70;70.10
44851;DHT22;30583;48.714;9.386;2023-03-18T03:26:16;9.70;70.40
44851;DHT22;30583;48.714;9.386;2023-03-18T03:28:42;9.70;70.10
44851;DHT22;30583;48.714;9.386;2023-03-18T03:31:08;9.70;70.30
44851;DHT22;30583;48.714;9.386;2023-03-18T03:33:40;9.50;70.40
44851;DHT22;30583;48.714;9.386;2023-03-18T03:36:13;9.50;70.90
44851;DHT22;30583;48.714;9.386;2023-03-18T03:38:39;9.00;72.10
44851;DHT22;30583;48.714;9.386;2023-03-18T03:41:06;9.10;72.40
44851;DHT22;30583;48.714;9.386;2023-03-18T03:43:35;9.60;70.50
44851;DHT22;30583;48.714;9.386;2023-03-18T03:46:01;9.70;69.70
44851;DHT22;30583;48.714;9.386;2023-03-18T03:48:26;9.60;70.20
44851;DHT22;30583;48.714;9.386;2023-03-18T03:50:52;9.40;70.90
44851;DHT22;30583;48.714;9.386;2023-03-18T03:53:19;9.20;71.60
44851;DHT22;30583;48.714;9.386;2023-03-18T03:55:45;9.20;71.50
44851;DHT22;30583;48.714;9.386;2023-03-18T03:58:11;9.10;72.10
44851;DHT22;30583;48.714;9.386;2023-03-18T04:00:36;9.00;72.40
44851;DHT22;30583;48.714;9.386;2023-03-18T04:03:02;9.40;71.20
44851;DHT22;30583;48.714;9.386;2023-03-18T04:05:29;9.50;70.50
44851;DHT22;30583;48.714;9.386;2023-03-18T04:07:54;9.40;70.40
44851;DHT22;30583;48.714;9.386;2023-03-18T04:10:24;9.30;70.80
44851;DHT22;30583;48.714;9.386;2023-03-18T04:12:52;9.10;71.40
44851;DHT22;30583;48.714;9.386;2023-03-18T04:15:19;8.90;72.60
44851;DHT22;30583;48.714;9.386;2023-03-18T04:17:47;9.00;72.30
44851;DHT22;30583;48.714;9.386;2023-03-18T04:20:13;9.30;71.00
44851;DHT22;30583;48.714;9.386;2023-03-18T04:22:39;9.20;71.30
44851;DHT22;30583;48.714;9.386;2023-03-18T04:25:06;9.00;71.60
44851;DHT22;30583;48.714;9.386;2023-03-18T04:27:32;8.90;71.50
44851;DHT22;30583;48.714;9.386;2023-03-18T04:29:58;9.20;71.00
44851;DHT22;30583;48.714;9.386;2023-03-18T04:32:25;9.40;70.30
44851;DHT22;30583;48.714;9.386;2023-03-18T04:34:50;9.40;70.00
44851;DHT22;30583;48.714;9.386;2023-03-18T04:37:16;9.20;70.90
44851;DHT22;30583;48.714;9.386;2023-03-18T04:39:46;9.00;71.40
44851;DHT22;30583;48.714;9.386;2023-03-18T04:42:12;8.90;72.00
44851;DHT22;30583;48.714;9.386;2023-03-18T04:44:38;9.20;71.10
44851;DHT22;30583;48.714;9.386;2023-03-18T04:47:04;9.00;71.30
44851;DHT22;30583;48.714;9.386;2023-03-18T04:49:30;9.00;71.10
44851;DHT22;30583;48.714;9.386;2023-03-18T04:51:55;8.90;71.70
44851;DHT22;30583;48.714;9.386;2023-03-18T04:54:21;8.80;71.50
44851;DHT22;30583;48.714;9.386;2023-03-18T04:56:46;8.90;71.60
44851;DHT22;30583;48.714;9.386;2023-03-18T04:59:12;8.90;71.80
44851;DHT22;30583;48.714;9.386;2023-03-18T05:01:38;8.90;71.60
44851;DHT22;30583;48.714;9.386;2023-03-18T05:04:04;9.10;71.30
44851;DHT22;30583;48.714;9.386;2023-03-18T05:06:31;9.00;71.20
44851;DHT22;30583;48.714;9.386;2023-03-18T05:08:58;8.90;71.70
44851;DHT22;30583;48.714;9.386;2023-03-18T05:11:25;8.80;71.90
44851;DHT22;30583;48.714;9.386;2023-03-18T05:13:51;8.70;72.20
44851;DHT22;30583;48.714;9.386;2023-03-18T05:16:17;8.70;72.20
44851;DHT22;30583;48.714;9.386;2023-03-18T05:18:42;9.10;71.20
44851;DHT22;30583;48.714;9.386;2023-03-18T05:21:09;8.80;71.30
44851;DHT22;30583;48.714;9.386;2023-03-18T05:23:34;8.40;72.50
44851;DHT22;30583;48.714;9.386;2023-03-18T05:26:00;8.30;73.10
44851;DHT22;30583;48.714;9.386;2023-03-18T05:28:26;8.10;73.80
44851;DHT22;30583;48.714;9.386;2023-03-18T05:30:52;8.20;73.70
44851;DHT22;30583;48.714;9.386;2023-03-18T05:33:18;8.40;72.80
44851;DHT22;30583;48.714;9.386;2023-03-18T05:35:44;8.60;72.20
44851;DHT22;30583;48.714;9.386;2023-03-18T05:38:09;8.60;71.70
44851;DHT22;30583;48.714;9.386;2023-03-18T05:40:35;8.50;72.50
44851;DHT22;30583;48.714;9.386;2023-03-18T05:43:02;8.30;72.60
44851;DHT22;30583;48.714;9.386;2023-03-18T05:45:28;8.40;72.50
44851;DHT22;30583;48.714;9.386;2023-03-18T05:47:54;8.50;72.20
44851;DHT22;30583;48.714;9.386;2023-03-18T05:50:39;8.50;72.00
44851;DHT22;30583;48.714;9.386;2023-03-18T05:53:06;8.40;72.30
44851;DHT22;30583;48.714;9.386;2023-03-18T05:55:33;8.20;72.30
44851;DHT22;30583;48.714;9.386;2023-03-18T05:57:59;8.30;72.20
44851;DHT22;30583;48.714;9.386;2023-03-18T06:00:28;8.40;71.70
44851;DHT22;30583;48.714;9.386;2023-03-18T06:02:55;8.40;71.30
44851;DHT22;30583;48.714;9.386;2023-03-18T06:05:22;8.30;71.60
44851;DHT22;30583;48.714;9.386;2023-03-18T06:07:49;8.20;72.50
44851;DHT22;30583;48.714;9.386;2023-03-18T06:10:15;8.20;72.60
44851;DHT22;30583;48.714;9.386;2023-03-18T06:12:41;8.20;72.70
44851;DHT22;30583;48.714;9.386;2023-03-18T06:15:10;8.30;72.90
44851;DHT22;30583;48.714;9.386;2023-03-18T06:17:36;8.20;72.60
44851;DHT22;30583;48.714;9.386;2023-03-18T06:20:03;8.30;72.00
44851;DHT22;30583;48.714;9.386;2023-03-18T06:22:29;8.30;71.70
44851;DHT22;30583;48.714;9.386;2023-03-18T06:24:57;8.10;72.60
44851;DHT22;30583;48.714;9.386;2023-03-18T06:27:23;8.40;73.00
44851;DHT22;30583;48.714;9.386;2023-03-18T06:29:48;8.70;73.10
44851;DHT22;30583;48.714;9.386;2023-03-18T06:32:14;9.00;71.80
44851;DHT22;30583;48.714;9.386;2023-03-18T06:34:40;9.20;71.00
44851;DHT22;30583;48.714;9.386;2023-03-18T06:37:06;9.20;69.80
44851;DHT22;30583;48.714;9.386;2023-03-18T06:39:32;9.30;69.60
44851;DHT22;30583;48.714;9.386;2023-03-18T06:41:59;9.20;69.10
44851;DHT22;30583;48.714;9.386;2023-03-18T06:44:25;9.20;69.20
44851;DHT22;30583;48.714;9.386;2023-03-18T06:46:50;9.10;69.60
44851;DHT22;30583;48.714;9.386;2023-03-18T06:49:16;9.20;69.30
44851;DHT22;30583;48.714;9.386;2023-03-18T06:51:42;9.20;69.10
44851;DHT22;30583;48.714;9.386;2023-03-18T06:54:09;9.30;68.50
44851;DHT22;30583;48.714;9.386;2023-03-18T06:56:35;9.30;68.80
44851;DHT22;30583;48.714;9.386;2023-03-18T06:59:07;9.10;69.40
44851;DHT22;30583;48.714;9.386;2023-03-18T07:01:34;9.00;70.10
44851;DHT22;30583;48.714;9.386;2023-03-18T07:04:01;8.90;70.70
44851;DHT22;30583;48.714;9.386;2023-03-18T07:06:28;8.90;70.50
44851;DHT22;30583;48.714;9.386;2023-03-18T07:08:57;8.70;71.00
44851;DHT22;30583;48.714;9.386;2023-03-18T07:11:23;8.60;71.40
44851;DHT22;30583;48.714;9.386;2023-03-18T07:13:50;8.60;71.50
44851;DHT22;30583;48.714;9.386;2023-03-18T07:16:17;8.70;71.50
44851;DHT22;30583;48.714;9.386;2023-03-18T07:18:43;8.90;71.10
44851;DHT22;30583;48.714;9.386;2023-03-18T07:21:08;8.70;71.70
44851;DHT22;30583;48.714;9.386;2023-03-18T07:23:34;8.90;71.60
44851;DHT22;30583;48.714;9.386;2023-03-18T07:26:00;8.90;71.60
44851;DHT22;30583;48.714;9.386;2023-03-18T07:28:26;9.10;71.10
44851;DHT22;30583;48.714;9.386;2023-03-18T07:30:52;9.10;71.00
44851;DHT22;30583;48.714;9.386;2023-03-18T07:33:17;9.10;71.30
44851;DHT22;30583;48.714;9.386;2023-03-18T07:35:43;9.20;70.80
44851;DHT22;30583;48.714;9.386;2023-03-18T07:38:10;9.20;70.90
44851;DHT22;30583;48.714;9.386;2023-03-18T07:40:36;9.40;70.50
44851;DHT22;30583;48.714;9.386;2023-03-18T07:43:03;9.50;70.00
44851;DHT22;30583;48.714;9.386;2023-03-18T07:45:29;9.60;69.70
44851;DHT22;30583;48.714;9.386;2023-03-18T07:47:54;9.60;69.30
44851;DHT22;30583;48.714;9.386;2023-03-18T07:50:20;10.00;68.30
44851;DHT22;30583;48.714;9.386;2023-03-18T07:52:46;10.10;67.90
44851;DHT22;30583;48.714;9.386;2023-03-18T07:55:12;10.10;68.00
44851;DHT22;30583;48.714;9.386;2023-03-18T07:57:38;10.20;67.60
44851;DHT22;30583;48.714;9.386;2023-03-18T08:00:06;10.20;67.60
44851;DHT22;30583;48.714;9.386;2023-03-18T08:02:32;10.30;67.40
44851;DHT22;30583;48.714;9.386;2023-03-18T08:04:59;10.30;67.30
44851;DHT22;30583;48.714;9.386;2023-03-18T08:07:24;10.50;66.60
44851;DHT22;30583;48.714;9.386;2023-03-18T08:09:50;10.70;66.20
44851;DHT22;30583;48.714;9.386;2023-03-18T08:12:16;10.70;65.90
44851;DHT22;30583;48.714;9.386;2023-03-18T08:14:42;10.70;65.70
44851;DHT22;30583;48.714;9.386;2023-03-18T08:17:08;10.90;65.40
44851;DHT22;30583;48.714;9.386;2023-03-18T08:19:34;10.90;64.90
44851;DHT22;30583;48.714;9.386;2023-03-18T08:22:00;11.10;65.50
44851;DHT22;30583;48.714;9.386;2023-03-18T08:24:26;13.80;69.60
44851;DHT22;30583;48.714;9.386;2023-03-18T08:26:52;17.30;56.80
44851;DHT22;30583;48.714;9.386;2023-03-18T08:29:17;17.80;50.80
44851;DHT22;30583;48.714;9.386;2023-03-18T08:31:43;18.10;49.60
44851;DHT22;30583;48.714;9.386;2023-03-18T08:34:09;17.90;48.40
44851;DHT22;30583;48.714;9.386;2023-03-18T08:36:35;18.20;47.20
44851;DHT22;30583;48.714;9.386;2023-03-18T08:39:02;18.30;46.30
44851;DHT22;30583;48.714;9.386;2023-03-18T08:41:28;18.40;49.10
44851;DHT22;30583;48.714;9.386;2023-03-18T08:43:54;16.00;48.40
44851;DHT22;30583;48.714;9.386;2023-03-18T08:46:21;14.20;53.30
44851;DHT22;30583;48.714;9.386;2023-03-18T08:48:47;13.60;54.50
44851;DHT22;30583;48.714;9.386;2023-03-18T08:51:13;13.50;54.40
44851;DHT22;30583;48.714;9.386;2023-03-18T08:53:39;13.40;53.90
44851;DHT22;30583;48.714;9.386;2023-03-18T08:56:05;13.40;54.90
44851;DHT22;30583;48.714;9.386;2023-03-18T08:58:32;13.60;54.50
44851;DHT22;30583;48.714;9.386;2023-03-18T09:00:59;13.90;53.30
44851;DHT22;30583;48.714;9.386;2023-03-18T09:03:26;14.20;53.00
44851;DHT22;30583;48.714;9.386;2023-03-18T09:05:53;14.40;52.20
44851;DHT22;30583;48.714;9.386;2023-03-18T09:08:20;14.50;51.90
44851;DHT22;30583;48.714;9.386;2023-03-18T09:10:47;14.70;51.30
44851;DHT22;30583;48.714;9.386;2023-03-18T09:13:12;15.00;50.40
44851;DHT22;30583;48.714;9.386;2023-03-18T09:15:39;15.20;49.70
44851;DHT22;30583;48.714;9.386;2023-03-18T09:18:05;15.30;49.60
44851;DHT22;30583;48.714;9.386;2023-03-18T09:20:30;15.50;49.20
44851;DHT22;30583;48.714;9.386;2023-03-18T09:22:57;15.40;48.40
44851;DHT22;30583;48.714;9.386;2023-03-18T09:25:24;16.00;47.90
44851;DHT22;30583;48.714;9.386;2023-03-18T09:27:50;15.90;47.50
44851;DHT22;30583;48.714;9.386;2023-03-18T09:30:16;16.00;47.50
44851;DHT22;30583;48.714;9.386;2023-03-18T09:32:41;16.20;46.70
44851;DHT22;30583;48.714;9.386;2023-03-18T09:35:07;15.80;46.40
44851;DHT22;30583;48.714;9.386;2023-03-18T09:37:34;16.30;44.10
44851;DHT22;30583;48.714;9.386;2023-03-18T09:40:00;16.80;44.20
44851;DHT22;30583;48.714;9.386;2023-03-18T09:45:30;17.10;43.60
44851;DHT22;30583;48.714;9.386;2023-03-18T09:53:54;17.20;41.00
44851;DHT22;30583;48.714;9.386;2023-03-18T09:56:30;17.40;41.00
44851;DHT22;30583;48.714;9.386;2023-03-18T09:59:19;17.40;41.90
44851;DHT22;30583;48.714;9.386;2023-03-18T10:01:48;18.00;41.60
44851;DHT22;30583;48.714;9.386;2023-03-18T10:04:22;18.20;39.80
44851;DHT22;30583;48.714;9.386;2023-03-18T10:06:53;17.80;37.80
44851;DHT22;30583;48.714;9.386;2023-03-18T10:09:40;18.20;38.20
44851;DHT22;30583;48.714;9.386;2023-03-18T10:12:26;18.60;37.90
44851;DHT22;30583;48.714;9.386;2023-03-18T10:17:47;18.40;37.30
44851;DHT22;30583;48.714;9.386;2023-03-18T10:20:24;18.60;37.60
44851;DHT22;30583;48.714;9.386;2023-03-18T10:23:01;19.00;38.00
44851;DHT22;30583;48.714;9.386;2023-03-18T10:25:50;19.20;35.40
44851;DHT22;30583;48.714;9.386;2023-03-18T10:34:20;19.00;35.60
44851;DHT22;30583;48.714;9.386;2023-03-18T10:39:31;19.70;36.30
44851;DHT22;30583;48.714;9.386;2023-03-18T10:42:01;19.70;35.70
44851;DHT22;30583;48.714;9.386;2023-03-18T10:44:34;19.40;34.50
44851;DHT22;30583;48.714;9.386;2023-03-18T10:47:10;19.90;36.30
44851;DHT22;30583;48.714;9.386;2023-03-18T10:52:39;20.30;34.50
44851;DHT22;30583;48.714;9.386;2023-03-18T10:55:16;19.50;32.20
44851;DHT22;30583;48.714;9.386;2023-03-18T10:57:42;19.20;32.10
44851;DHT22;30583;48.714;9.386;2023-03-18T11:00:32;19.40;33.00
44851;DHT22;30583;48.714;9.386;2023-03-18T11:02:58;19.50;33.20
44851;DHT22;30583;48.714;9.386;2023-03-18T11:05:44;19.30;33.30
44851;DHT22;30583;48.714;9.386;2023-03-18T11:08:31;19.40;34.50
44851;DHT22;30583;48.714;9.386;2023-03-18T11:11:25;19.30;34.30
44851;DHT22;30583;48.714;9.386;2023-03-18T11:13:53;19.50;34.30
44851;DHT22;30583;48.714;9.386;2023-03-18T11:16:39;19.70;34.10
44851;DHT22;30583;48.714;9.386;2023-03-18T11:19:39;20.00;33.70
44851;DHT22;30583;48.714;9.386;2023-03-18T11:22:23;20.20;32.40
44851;DHT22;30583;48.714;9.386;2023-03-18T11:25:14;20.40;31.80
44851;DHT22;30583;48.714;9.386;2023-03-18T11:27:49;19.80;30.50
44851;DHT22;30583;48.714;9.386;2023-03-18T11:30:21;19.70;30.80
44851;DHT22;30583;48.714;9.386;2023-03-18T11:35:47;19.90;30.20
44851;DHT22;30583;48.714;9.386;2023-03-18T11:38:34;19.80;30.10
44851;DHT22;30583;48.714;9.386;2023-03-18T11:41:24;20.20;30.40
44851;DHT22;30583;48.714;9.386;2023-03-18T11:46:31;20.70;29.60
44851;DHT22;30583;48.714;9.386;2023-03-18T11:48:58;20.30;30.20
44851;DHT22;30583;48.714;9.386;2023-03-18T11:51:36;20.40;30.10
44851;DHT22;30583;48.714;9.386;2023-03-18T11:56:45;20.90;29.90
44851;DHT22;30583;48.714;9.386;2023-03-18T11:59:31;21.20;29.60
44851;DHT22;30583;48.714;9.386;2023-03-18T12:07:53;20.50;29.80
44851;DHT22;30583;48.714;9.386;2023-03-18T12:10:39;20.70;28.70
44851;DHT22;30583;48.714;9.386;2023-03-18T12:16:07;21.50;28.90
44851;DHT22;30583;48.714;9.386;2023-03-18T12:21:52;21.70;28.70
44851;DHT22;30583;48.714;9.386;2023-03-18T12:36:03;22.50;28.40
44851;DHT22;30583;48.714;9.386;2023-03-18T12:41:38;22.90;27.30
44851;DHT22;30583;48.714;9.386;2023-03-18T12:47:19;23.20;27.50
44851;DHT22;30583;48.714;9.386;2023-03-18T12:49:56;23.20;26.70
44851;DHT22;30583;48.714;9.386;2023-03-18T12:52:35;22.10;27.20
44851;DHT22;30583;48.714;9.386;2023-03-18T12:57:47;22.80;27.10
44851;DHT22;30583;48.714;9.386;2023-03-18T13:00:23;23.20;26.50
44851;DHT22;30583;48.714;9.386;2023-03-18T13:03:02;23.30;26.80
44851;DHT22;30583;48.714;9.386;2023-03-18T13:05:40;23.10;26.10
44851;DHT22;30583;48.714;9.386;2023-03-18T13:08:37;22.70;27.00
44851;DHT22;30583;48.714;9.386;2023-03-18T13:14:25;23.30;27.40
44851;DHT22;30583;48.714;9.386;2023-03-18T13:16:52;23.90;28.30
44851;DHT22;30583;48.714;9.386;2023-03-18T13:19:19;24.40;26.70
44851;DHT22;30583;48.714;9.386;2023-03-18T13:21:55;23.50;26.00
44851;DHT22;30583;48.714;9.386;2023-03-18T13:24:31;22.50;26.30
44851;DHT22;30583;48.714;9.386;2023-03-18T13:30:14;23.00;26.30
44851;DHT22;30583;48.714;9.386;2023-03-18T13:35:44;23.40;26.30
44851;DHT22;30583;48.714;9.386;2023-03-18T13:41:37;24.30;26.30
44851;DHT22;30583;48.714;9.386;2023-03-18T13:45:15;24.20;25.70
44851;DHT22;30583;48.714;9.386;2023-03-18T13:47:15;23.10;25.90
44851;DHT22;30583;48.714;9.386;2023-03-18T13:49:43;23.30;26.60
44851;DHT22;30583;48.714;9.386;2023-03-18T13:52:25;23.70;26.40
44851;DHT22;30583;48.714;9.386;2023-03-18T13:55:01;24.30;26.20
44851;DHT22;30583;48.714;9.386;2023-03-18T14:05:44;24.90;24.80
44851;DHT22;30583;48.714;9.386;2023-03-18T14:13:52;24.40;24.10
44851;DHT22;30583;48.714;9.386;2023-03-18T14:21:29;22.80;26.60
44851;DHT22;30583;48.714;9.386;2023-03-18T14:26:34;23.10;25.30
44851;DHT22;30583;48.714;9.386;2023-03-18T14:31:48;23.20;26.20
44851;DHT22;30583;48.714;9.386;2023-03-18T14:39:43;22.00;26.50
44851;DHT22;30583;48.714;9.386;2023-03-18T14:45:17;21.70;26.90
44851;DHT22;30583;48.714;9.386;2023-03-18T14:47:50;21.70;27.30
44851;DHT22;30583;48.714;9.386;2023-03-18T14:50:38;21.80;28.00
44851;DHT22;30583;48.714;9.386;2023-03-18T14:53:32;21.70;27.70
44851;DHT22;30583;48.714;9.386;2023-03-18T14:55:59;21.60;28.80
44851;DHT22;30583;48.714;9.386;2023-03-18T14:58:26;21.50;29.10
44851;DHT22;30583;48.714;9.386;2023-03-18T15:01:15;21.60;28.40
44851;DHT22;30583;48.714;9.386;2023-03-18T15:03:44;21.40;28.20
44851;DHT22;30583;48.714;9.386;2023-03-18T15:06:20;21.00;28.50
44851;DHT22;30583;48.714;9.386;2023-03-18T15:08:57;21.00;29.00
44851;DHT22;30583;48.714;9.386;2023-03-18T15:11:25;21.40;29.30
44851;DHT22;30583;48.714;9.386;2023-03-18T15:13:54;21.30;28.20
44851;DHT22;30583;48.714;9.386;2023-03-18T15:16:22;21.20;29.70
44851;DHT22;30583;48.714;9.386;2023-03-18T15:18:53;21.20;29.00
44851;DHT22;30583;48.714;9.386;2023-03-18T15:21:27;21.00;30.00
44851;DHT22;30583;48.714;9.386;2023-03-18T15:23:59;21.20;28.80
44851;DHT22;30583;48.714;9.386;2023-03-18T15:27:14;21.00;30.30
44851;DHT22;30583;48.714;9.386;2023-03-18T15:29:27;21.20;29.60
44851;DHT22;30583;48.714;9.386;2023-03-18T15:32:04;21.20;29.40
44851;DHT22;30583;48.714;9.386;2023-03-18T15:34:31;21.20;29.30
44851;DHT22;30583;48.714;9.386;2023-03-18T15:37:00;21.20;29.70
44851;DHT22;30583;48.714;9.386;2023-03-18T15:41:53;22.00;28.20
44851;DHT22;30583;48.714;9.386;2023-03-18T15:44:30;22.10;28.20
44851;DHT22;30583;48.714;9.386;2023-03-18T15:50:18;21.80;27.60
44851;DHT22;30583;48.714;9.386;2023-03-18T15:52:48;21.20;28.40
44851;DHT22;30583;48.714;9.386;2023-03-18T15:57:55;21.40;28.80
44851;DHT22;30583;48.714;9.386;2023-03-18T16:00:21;21.20;29.00
44851;DHT22;30583;48.714;9.386;2023-03-18T16:02:47;20.90;28.90
44851;DHT22;30583;48.714;9.386;2023-03-18T16:05:20;20.80;29.00
44851;DHT22;30583;48.714;9.386;2023-03-18T16:07:47;20.70;28.80
44851;DHT22;30583;48.714;9.386;2023-03-18T16:10:14;20.60;29.10
44851;DHT22;30583;48.714;9.386;2023-03-18T16:12:51;20.60;29.00
44851;DHT22;30583;48.714;9.386;2023-03-18T16:15:19;20.70;29.40
44851;DHT22;30583;48.714;9.386;2023-03-18T16:17:50;20.50;29.70
44851;DHT22;30583;48.714;9.386;2023-03-18T16:20:20;20.50;29.60
44851;DHT22;30583;48.714;9.386;2023-03-18T16:22:47;20.70;30.30
44851;DHT22;30583;48.714;9.386;2023-03-18T16:25:13;20.70;30.40
44851;DHT22;30583;48.714;9.386;2023-03-18T16:27:40;20.40;30.00
44851;DHT22;30583;48.714;9.386;2023-03-18T16:30:24;20.40;30.30
44851;DHT22;30583;48.714;9.386;2023-03-18T16:32:51;19.90;31.20
44851;DHT22;30583;48.714;9.386;2023-03-18T16:35:22;19.70;33.30
44851;DHT22;30583;48.714;9.386;2023-03-18T16:37:48;19.70;34.40
44851;DHT22;30583;48.714;9.386;2023-03-18T16:40:18;19.60;35.40
44851;DHT22;30583;48.714;9.386;2023-03-18T16:42:45;19.80;35.80
44851;DHT22;30583;48.714;9.386;2023-03-18T16:45:26;19.80;36.70
44851;DHT22;30583;48.714;9.386;2023-03-18T16:47:55;19.70;37.30
44851;DHT22;30583;48.714;9.386;2023-03-18T16:50:28;19.50;38.10
44851;DHT22;30583;48.714;9.386;2023-03-18T16:52:55;19.50;38.40
44851;DHT22;30583;48.714;9.386;2023-03-18T16:55:21;19.30;38.80
44851;DHT22;30583;48.714;9.386;2023-03-18T16:57:52;19.10;39.50
44851;DHT22;30583;48.714;9.386;2023-03-18T17:00:22;18.80;40.60
44851;DHT22;30583;48.714;9.386;2023-03-18T17:02:49;18.60;41.40
44851;DHT22;30583;48.714;9.386;2023-03-18T17:05:20;18.70;41.80
44851;DHT22;30583;48.714;9.386;2023-03-18T17:07:47;18.80;41.80
44851;DHT22;30583;48.714;9.386;2023-03-18T17:10:15;18.90;41.60
44851;DHT22;30583;48.714;9.386;2023-03-18T17:12:45;18.60;42.70
44851;DHT22;30583;48.714;9.386;2023-03-18T17:15:15;18.60;42.80
44851;DHT22;30583;48.714;9.386;2023-03-18T17:17:42;18.40;43.50
44851;DHT22;30583;48.714;9.386;2023-03-18T17:20:16;18.40;43.70
44851;DHT22;30583;48.714;9.386;2023-03-18T17:22:42;18.60;43.50
44851;DHT22;30583;48.714;9.386;2023-03-18T17:25:08;18.70;43.40
44851;DHT22;30583;48.714;9.386;2023-03-18T17:27:56;18.60;43.40
44851;DHT22;30583;48.714;9.386;2023-03-18T17:30:31;18.30;44.10
44851;DHT22;30583;48.714;9.386;2023-03-18T17:32:58;18.10;44.80
44851;DHT22;30583;48.714;9.386;2023-03-18T17:35:23;18.20;44.60
44851;DHT22;30583;48.714;9.386;2023-03-18T17:37:49;18.00;45.00
44851;DHT22;30583;48.714;9.386;2023-03-18T17:40:17;18.20;44.50
44851;DHT22;30583;48.714;9.386;2023-03-18T17:42:44;18.10;44.50
44851;DHT22;30583;48.714;9.386;2023-03-18T17:45:33;18.00;45.10
44851;DHT22;30583;48.714;9.386;2023-03-18T17:48:19;18.10;44.50
44851;DHT22;30583;48.714;9.386;2023-03-18T17:50:56;17.90;44.90
44851;DHT22;30583;48.714;9.386;2023-03-18T17:53:34;17.90;44.80
44851;DHT22;30583;48.714;9.386;2023-03-18T17:56:02;17.70;45.40
44851;DHT22;30583;48.714;9.386;2023-03-18T17:58:30;17.90;45.20